Time;durP1;ratioP1;P1;durP2;ratioP2;P2;SDS_P1;SDS_P2;PMS_P1;PMS_P2;Temp;Humidity;BMP_temperature;BMP_pressure;BME280_temperature;BME280_humidity;BME280_pressure;Samples;Min_cycle;Max_cycle;Signal;HPM_P1;HPM_P2
2022/05/14 00:00:47;;;;;;;18.23;14.60;;;17.20;99.90;;;;;;5061149;28;20104;-75
2022/05/14 00:03:17;;;;;;;21.42;13.82;;;17.20;99.90;;;;;;5039440;28;20412;-76
2022/05/14 00:05:44;;;;;;;15.32;12.75;;;17.30;99.90;;;;;;5057418;28;20073;-76
2022/05/14 00:08:15;;;;;;;16.65;12.50;;;17.30;99.90;;;;;;5058896;28;20504;-75
2022/05/14 00:13:26;;;;;;;17.50;12.68;;;17.30;99.90;;;;;;5055591;28;20052;-76
2022/05/14 00:15:54;;;;;;;13.23;11.05;;;17.20;99.90;;;;;;5057307;28;20040;-75
2022/05/14 00:18:23;;;;;;;14.75;10.77;;;17.20;99.90;;;;;;5056418;28;20054;-77
2022/05/14 00:20:51;;;;;;;16.10;11.27;;;17.10;99.90;;;;;;5056418;28;20461;-75
2022/05/14 00:23:19;;;;;;;17.15;12.15;;;17.10;99.90;;;;;;5054188;28;20094;-75
2022/05/14 00:25:47;;;;;;;17.38;12.48;;;17.10;99.90;;;;;;5055974;28;20037;-76
2022/05/14 00:28:14;;;;;;;14.00;12.02;;;17.00;99.90;;;;;;5056314;28;20519;-76
2022/05/14 00:30:42;;;;;;;17.45;12.13;;;16.90;99.90;;;;;;5056389;28;20049;-75
2022/05/14 00:33:10;;;;;;;17.38;12.02;;;16.90;99.90;;;;;;5038416;28;20051;-77
2022/05/14 00:35:39;;;;;;;15.30;11.80;;;16.90;99.90;;;;;;5055887;28;20049;-78
2022/05/14 00:38:08;;;;;;;17.67;12.80;;;16.90;99.90;;;;;;5056336;28;20041;-75
2022/05/14 00:40:38;;;;;;;22.67;16.75;;;16.90;99.90;;;;;;5054808;28;20055;-75
2022/05/14 00:43:06;;;;;;;11.85;10.65;;;16.90;99.90;;;;;;5037685;28;20056;-78
2022/05/14 00:45:37;;;;;;;13.38;10.25;;;17.00;99.90;;;;;;5055875;28;20041;-77
2022/05/14 00:48:06;;;;;;;14.82;11.43;;;17.10;99.90;;;;;;5055895;28;20041;-76
2022/05/14 00:50:40;;;;;;;17.63;10.60;;;17.20;99.90;;;;;;5055743;28;20043;-78
2022/05/14 00:53:11;;;;;;;12.63;10.88;;;17.10;99.90;;;;;;5054249;28;20056;-77
2022/05/14 00:55:41;;;;;;;16.27;11.65;;;17.10;99.90;;;;;;5037915;28;20047;-77
2022/05/14 00:58:12;;;;;;;17.80;11.27;;;17.20;99.90;;;;;;5055947;28;20090;-76
2022/05/14 01:00:39;;;;;;;13.32;9.43;;;17.20;99.90;;;;;;5055782;28;20512;-77
2022/05/14 01:03:07;;;;;;;10.23;9.13;;;17.30;99.90;;;;;;5037470;28;20052;-77
2022/05/14 01:05:35;;;;;;;15.35;10.38;;;17.20;99.90;;;;;;5037037;28;20543;-75
2022/05/14 01:08:05;;;;;;;17.55;11.40;;;17.20;99.90;;;;;;5037856;28;20059;-76
2022/05/14 01:10:39;;;;;;;13.80;11.23;;;17.20;99.90;;;;;;5037471;28;20496;-77
2022/05/14 01:13:07;;;;;;;12.75;10.68;;;17.20;99.90;;;;;;5036970;28;20118;-77
2022/05/14 01:15:46;;;;;;;15.57;10.93;;;17.20;99.90;;;;;;5055450;28;20128;-76
2022/05/14 01:18:14;;;;;;;13.30;10.38;;;17.20;99.90;;;;;;5037063;28;20072;-77
2022/05/14 01:20:43;;;;;;;12.55;10.68;;;17.10;99.90;;;;;;5037208;28;20140;-77
2022/05/14 01:23:22;;;;;;;13.70;10.50;;;17.00;99.90;;;;;;5036555;28;20114;-77
2022/05/14 01:28:50;;;;;;;14.32;11.10;;;17.10;99.90;;;;;;5037153;28;20045;-77
2022/05/14 01:31:17;;;;;;;12.75;10.15;;;17.20;99.90;;;;;;5037250;28;20037;-76
2022/05/14 01:33:45;;;;;;;11.18;9.68;;;17.20;99.90;;;;;;5036020;28;20419;-76
2022/05/14 01:36:12;;;;;;;13.35;10.50;;;17.30;99.90;;;;;;5054537;28;20060;-77
2022/05/14 01:38:41;;;;;;;13.98;10.68;;;17.30;99.90;;;;;;5036857;28;20132;-76
2022/05/14 01:41:11;;;;;;;12.00;10.32;;;17.30;99.90;;;;;;5036476;28;20053;-77
2022/05/14 01:43:39;;;;;;;16.00;11.52;;;17.40;99.90;;;;;;5043400;28;20048;-77
2022/05/14 01:46:07;;;;;;;11.57;9.93;;;17.30;99.90;;;;;;5056450;28;20040;-77
2022/05/14 01:48:35;;;;;;;12.90;10.23;;;17.40;99.90;;;;;;5056657;28;20076;-77
2022/05/14 01:51:03;;;;;;;12.02;9.85;;;17.40;99.90;;;;;;5056831;28;20044;-76
2022/05/14 01:53:30;;;;;;;13.70;10.23;;;17.40;99.90;;;;;;5056472;28;20072;-78
2022/05/14 01:55:58;;;;;;;14.80;10.63;;;17.50;99.90;;;;;;5073614;28;20098;-77
2022/05/14 01:58:40;;;;;;;14.27;10.75;;;17.50;99.90;;;;;;5056623;28;20049;-77
2022/05/14 02:01:18;;;;;;;13.07;10.90;;;17.60;99.90;;;;;;5073585;28;20067;-77
2022/05/14 02:03:47;;;;;;;16.60;11.15;;;17.60;99.90;;;;;;5074519;28;20045;-76
2022/05/14 02:06:16;;;;;;;14.10;9.70;;;17.70;99.90;;;;;;5056901;28;20045;-78
2022/05/14 02:08:44;;;;;;;16.35;10.13;;;17.70;99.90;;;;;;5056524;28;20049;-76
2022/05/14 02:11:13;;;;;;;12.32;10.20;;;17.70;99.90;;;;;;5077710;28;20518;-77
2022/05/14 02:13:46;;;;;;;13.43;10.95;;;17.70;99.90;;;;;;5078207;28;20047;-76
2022/05/14 02:16:14;;;;;;;15.45;10.80;;;17.60;99.90;;;;;;5062188;28;20094;-77
2022/05/14 02:18:42;;;;;;;15.13;10.43;;;17.70;99.90;;;;;;5056455;28;20049;-76
2022/05/14 02:21:10;;;;;;;14.27;10.40;;;17.80;99.90;;;;;;5072990;28;20044;-76
2022/05/14 02:23:38;;;;;;;13.85;10.25;;;17.70;99.90;;;;;;5073528;28;20063;-78
2022/05/14 02:26:06;;;;;;;12.75;10.20;;;17.60;99.90;;;;;;5072733;28;20064;-77
2022/05/14 02:28:36;;;;;;;12.05;9.63;;;17.60;99.90;;;;;;5056162;28;20051;-77
2022/05/14 02:31:05;;;;;;;13.45;8.45;;;17.70;99.90;;;;;;5073958;28;20043;-76
2022/05/14 02:33:33;;;;;;;11.63;8.85;;;17.70;99.90;;;;;;5073720;28;20545;-77
2022/05/14 02:36:02;;;;;;;11.57;9.63;;;17.80;99.90;;;;;;5056148;28;20075;-76
2022/05/14 02:38:31;;;;;;;12.50;9.10;;;17.80;99.90;;;;;;5056194;28;20052;-78
2022/05/14 02:41:00;;;;;;;12.38;9.30;;;17.80;99.90;;;;;;5055795;28;20054;-76
2022/05/14 02:43:28;;;;;;;15.32;9.65;;;18.00;99.90;;;;;;5063636;28;20071;-77
2022/05/14 02:45:55;;;;;;;11.23;8.07;;;17.90;99.90;;;;;;5022255;28;20045;-77
2022/05/14 02:48:25;;;;;;;11.00;8.38;;;17.90;99.90;;;;;;5024714;28;20045;-75
2022/05/14 02:50:53;;;;;;;12.23;8.13;;;17.90;99.90;;;;;;5028966;28;20076;-76
2022/05/14 02:53:21;;;;;;;12.07;7.85;;;18.00;99.90;;;;;;5020544;28;20064;-76
2022/05/14 02:55:49;;;;;;;15.00;8.30;;;17.90;99.90;;;;;;5034572;28;20041;-76
2022/05/14 02:59:06;;;;;;;12.70;9.45;;;17.90;99.90;;;;;;5015686;28;20156;-77
2022/05/14 03:01:06;;;;;;;11.45;8.73;;;17.80;99.90;;;;;;5015886;28;20382;-77
2022/05/14 03:03:35;;;;;;;11.38;9.18;;;17.70;99.90;;;;;;5032820;28;20049;-77
2022/05/14 03:06:04;;;;;;;13.07;10.57;;;17.70;99.90;;;;;;5016353;28;20057;-76
2022/05/14 03:08:32;;;;;;;12.20;9.02;;;17.60;99.90;;;;;;5015678;28;20061;-75
2022/05/14 03:10:59;;;;;;;12.13;9.57;;;17.60;99.90;;;;;;5033748;28;20153;-77
2022/05/14 03:13:27;;;;;;;14.43;9.45;;;17.60;99.90;;;;;;5033290;28;20042;-76
2022/05/14 03:15:55;;;;;;;18.25;11.00;;;17.60;99.90;;;;;;5033227;28;20069;-76
2022/05/14 03:18:23;;;;;;;12.80;10.55;;;17.60;99.90;;;;;;5033433;28;20048;-76
2022/05/14 03:20:52;;;;;;;12.52;10.68;;;17.60;99.90;;;;;;5034070;28;20045;-77
2022/05/14 03:23:20;;;;;;;11.48;10.27;;;17.50;99.90;;;;;;5017392;28;20132;-77
2022/05/14 03:25:47;;;;;;;12.50;9.90;;;17.40;99.90;;;;;;5035184;28;20425;-77
2022/05/14 03:28:16;;;;;;;18.73;10.25;;;17.40;99.90;;;;;;5021034;28;20390;-76
2022/05/14 03:30:43;;;;;;;22.40;18.27;;;17.50;99.90;;;;;;5037138;28;20045;-77
2022/05/14 03:33:10;;;;;;;33.17;25.33;;;17.40;99.90;;;;;;5015345;28;20069;-77
2022/05/14 03:35:38;;;;;;;19.67;14.43;;;17.50;99.90;;;;;;5032975;28;20087;-77
2022/05/14 03:38:07;;;;;;;11.73;10.25;;;17.50;99.90;;;;;;5033722;28;20064;-77
2022/05/14 03:40:35;;;;;;;12.10;9.40;;;17.50;99.90;;;;;;5015825;28;20052;-77
2022/05/14 03:43:03;;;;;;;11.18;8.35;;;17.50;99.90;;;;;;5036532;28;20046;-77
2022/05/14 03:45:31;;;;;;;10.98;7.22;;;17.50;99.90;;;;;;5073421;28;20053;-77
2022/05/14 03:47:58;;;;;;;8.73;6.65;;;17.50;99.90;;;;;;5071783;28;20047;-77
2022/05/14 03:50:26;;;;;;;9.30;6.40;;;17.50;99.90;;;;;;5071362;28;20049;-77
2022/05/14 03:52:53;;;;;;;7.45;6.18;;;17.60;99.90;;;;;;5072669;28;20484;-76
2022/05/14 03:55:23;;;;;;;13.88;6.63;;;17.50;99.90;;;;;;5071542;28;20064;-77
2022/05/14 03:57:51;;;;;;;9.18;7.30;;;17.60;99.90;;;;;;5072923;28;20110;-77
2022/05/14 04:00:20;;;;;;;10.88;8.05;;;17.60;99.90;;;;;;5059151;28;20049;-76
2022/05/14 04:02:48;;;;;;;11.10;7.68;;;17.60;99.90;;;;;;5076527;28;20045;-77
2022/05/14 04:05:16;;;;;;;10.00;7.68;;;17.70;99.90;;;;;;5077582;28;20044;-77
2022/05/14 04:07:44;;;;;;;16.17;7.25;;;17.70;99.90;;;;;;5058518;28;20087;-77
2022/05/14 04:10:13;;;;;;;10.90;6.85;;;17.70;99.90;;;;;;5076363;28;20492;-77
2022/05/14 04:12:42;;;;;;;9.70;6.13;;;17.70;99.90;;;;;;5075913;28;20419;-77
2022/05/14 04:15:11;;;;;;;12.52;7.07;;;17.70;99.90;;;;;;5076393;28;20123;-78
2022/05/14 04:17:39;;;;;;;7.82;6.07;;;17.70;99.90;;;;;;5058433;28;20041;-77
2022/05/14 04:20:08;;;;;;;19.00;5.78;;;17.70;99.90;;;;;;5058523;28;20431;-76
2022/05/14 04:22:36;;;;;;;10.50;5.90;;;17.70;99.90;;;;;;5075930;28;20123;-78
2022/05/14 04:25:05;;;;;;;8.98;5.90;;;17.70;99.90;;;;;;5075982;28;20052;-77
2022/05/14 04:27:33;;;;;;;12.48;6.70;;;17.70;99.90;;;;;;5058180;28;20045;-77
2022/05/14 04:30:03;;;;;;;9.82;7.43;;;17.80;99.90;;;;;;5058291;28;20048;-77
2022/05/14 04:32:30;;;;;;;15.60;10.60;;;17.90;99.90;;;;;;5058240;28;20047;-77
2022/05/14 04:34:58;;;;;;;16.92;11.52;;;18.10;99.90;;;;;;5058382;28;20041;-77
2022/05/14 04:37:26;;;;;;;18.48;13.25;;;18.10;99.90;;;;;;5058015;28;20041;-77
2022/05/14 04:39:54;;;;;;;21.15;13.73;;;18.20;99.90;;;;;;5052350;28;20460;-77
2022/05/14 04:42:22;;;;;;;26.23;16.98;;;18.30;99.90;;;;;;5037586;28;20052;-78
2022/05/14 04:44:49;;;;;;;33.97;21.05;;;18.30;99.90;;;;;;5047209;28;20098;-77
2022/05/14 04:47:19;;;;;;;31.80;19.98;;;18.30;99.90;;;;;;5038363;28;20047;-77
2022/05/14 04:49:49;;;;;;;32.22;20.77;;;18.30;99.90;;;;;;5037225;28;20049;-77
2022/05/14 04:52:18;;;;;;;39.88;20.95;;;18.30;99.90;;;;;;5038386;28;20048;-77
2022/05/14 04:54:46;;;;;;;35.17;20.45;;;18.40;99.90;;;;;;5037809;28;20051;-77
2022/05/14 04:57:13;;;;;;;30.15;20.05;;;18.40;99.90;;;;;;5038450;28;20221;-78
2022/05/14 04:59:41;;;;;;;34.17;21.45;;;18.40;99.90;;;;;;5038531;28;20053;-77
2022/05/14 05:04:58;;;;;;;32.22;20.48;;;18.50;99.90;;;;;;5054682;28;20053;-79
2022/05/14 05:07:26;;;;;;;27.63;18.77;;;18.50;99.90;;;;;;5039724;28;20049;-75
2022/05/14 05:09:53;;;;;;;29.10;18.52;;;18.50;99.90;;;;;;5057510;28;20074;-76
2022/05/14 05:12:21;;;;;;;31.55;20.27;;;18.50;99.90;;;;;;5055997;28;20052;-77
2022/05/14 05:14:48;;;;;;;27.80;18.52;;;18.50;99.90;;;;;;5055937;28;20128;-76
2022/05/14 05:17:16;;;;;;;27.70;18.65;;;18.50;99.90;;;;;;5055447;28;20485;-75
2022/05/14 05:19:43;;;;;;;31.95;17.70;;;18.50;99.90;;;;;;5054973;28;20037;-76
2022/05/14 05:22:12;;;;;;;23.15;16.88;;;18.60;99.90;;;;;;5037729;28;20057;-77
2022/05/14 05:24:40;;;;;;;25.70;16.85;;;18.60;99.90;;;;;;5055527;28;20485;-78
2022/05/14 05:27:08;;;;;;;23.13;16.65;;;18.60;99.90;;;;;;5054333;28;20046;-78
2022/05/14 05:29:35;;;;;;;21.52;15.05;;;18.60;99.90;;;;;;5055465;28;20107;-78
2022/05/14 05:32:03;;;;;;;26.27;15.13;;;18.70;99.90;;;;;;5055441;28;20048;-77
2022/05/14 05:34:31;;;;;;;17.00;14.07;;;18.70;99.90;;;;;;5055511;28;20049;-77
2022/05/14 05:36:59;;;;;;;18.08;13.93;;;18.60;99.90;;;;;;5054153;28;20095;-77
2022/05/14 05:39:28;;;;;;;23.13;14.32;;;18.60;99.90;;;;;;5055550;28;20040;-77
2022/05/14 05:41:58;;;;;;;16.88;13.15;;;18.50;99.90;;;;;;5054775;28;20045;-78
2022/05/14 05:44:26;;;;;;;20.10;14.73;;;18.30;99.90;;;;;;5056374;28;20041;-78
2022/05/14 05:46:53;;;;;;;17.92;13.65;;;18.10;99.90;;;;;;5055871;28;20048;-77
2022/05/14 05:49:21;;;;;;;17.45;12.02;;;18.10;99.90;;;;;;5054625;28;20037;-78
2022/05/14 05:51:49;;;;;;;15.40;11.77;;;18.00;99.90;;;;;;5055658;28;20041;-77
2022/05/14 05:57:03;;;;;;;18.70;14.55;;;18.00;99.90;;;;;;5055133;28;20044;-78
2022/05/14 05:59:32;;;;;;;16.77;12.98;;;18.00;99.90;;;;;;5054555;28;20044;-78
2022/05/14 06:02:00;;;;;;;22.33;14.13;;;18.00;99.90;;;;;;5035890;28;20041;-78
2022/05/14 06:04:28;;;;;;;20.52;14.55;;;18.00;99.90;;;;;;5051736;28;20395;-77
2022/05/14 06:06:55;;;;;;;16.77;11.52;;;18.10;99.90;;;;;;5056382;28;20049;-76
2022/05/14 06:09:26;;;;;;;15.23;12.25;;;18.10;99.90;;;;;;5056942;28;20102;-77
2022/05/14 06:11:54;;;;;;;29.70;16.75;;;18.10;99.90;;;;;;5056777;28;20063;-76
2022/05/14 06:14:24;;;;;;;26.08;16.25;;;18.10;99.90;;;;;;5054728;28;20063;-76
2022/05/14 06:16:52;;;;;;;25.55;16.23;;;18.10;99.90;;;;;;5054852;28;20090;-77
2022/05/14 06:19:19;;;;;;;18.65;14.25;;;18.00;99.90;;;;;;5054661;28;20052;-77
2022/05/14 06:21:47;;;;;;;17.88;14.25;;;18.00;99.90;;;;;;5053717;28;20412;-76
2022/05/14 06:24:14;;;;;;;15.38;12.85;;;17.80;99.90;;;;;;5054390;28;20045;-77
2022/05/14 06:26:42;;;;;;;15.05;12.68;;;17.80;99.90;;;;;;5055011;28;20056;-77
2022/05/14 06:29:12;;;;;;;17.60;11.70;;;17.80;99.90;;;;;;5054531;28;20073;-77
2022/05/14 06:31:40;;;;;;;17.08;11.38;;;17.80;99.90;;;;;;5054895;28;20400;-77
2022/05/14 06:34:08;;;;;;;17.83;13.48;;;17.90;99.90;;;;;;5054045;28;20047;-77
2022/05/14 06:36:37;;;;;;;17.92;11.95;;;18.00;99.90;;;;;;5055434;28;20037;-77
2022/05/14 06:39:06;;;;;;;15.40;12.45;;;18.00;99.90;;;;;;5052669;28;20092;-77
2022/05/14 06:41:33;;;;;;;15.57;12.65;;;18.10;99.90;;;;;;5055263;28;20123;-78
2022/05/14 06:44:01;;;;;;;15.95;13.52;;;18.10;99.90;;;;;;5061741;28;20094;-76
2022/05/14 06:46:30;;;;;;;20.73;15.18;;;18.20;99.90;;;;;;5055331;28;20114;-77
2022/05/14 06:48:59;;;;;;;21.70;16.67;;;18.20;99.90;;;;;;5043796;28;20041;-77
2022/05/14 06:51:29;;;;;;;28.23;17.90;;;18.40;99.90;;;;;;5060799;28;20041;-77
2022/05/14 06:54:01;;;;;;;25.30;17.58;;;18.40;99.90;;;;;;5022082;28;20045;-77
2022/05/14 06:56:30;;;;;;;27.60;17.98;;;18.50;99.90;;;;;;5044740;28;20059;-78
2022/05/14 06:58:59;;;;;;;27.45;18.10;;;18.60;99.90;;;;;;5048129;28;20049;-77
2022/05/14 07:01:27;;;;;;;29.33;19.75;;;18.90;99.90;;;;;;5041706;28;20050;-79
2022/05/14 07:06:45;;;;;;;36.88;23.73;;;19.10;99.90;;;;;;5061585;28;20052;-76
2022/05/14 07:09:15;;;;;;;38.22;24.52;;;19.10;99.90;;;;;;5061207;28;20036;-78
2022/05/14 07:11:46;;;;;;;48.63;28.35;;;19.10;99.90;;;;;;5057363;28;20049;-77
2022/05/14 07:14:16;;;;;;;39.25;29.60;;;19.10;99.90;;;;;;5055638;28;20433;-77
2022/05/14 07:16:44;;;;;;;38.72;27.48;;;19.20;99.90;;;;;;5057561;28;20060;-77
2022/05/14 07:19:13;;;;;;;38.72;25.15;;;19.40;99.90;;;;;;5057043;28;20103;-79
2022/05/14 07:21:43;;;;;;;36.05;24.02;;;19.50;99.90;;;;;;5055596;28;20060;-77
2022/05/14 07:24:15;;;;;;;36.75;21.60;;;19.80;99.90;;;;;;5058355;28;20120;-78
2022/05/14 07:26:43;;;;;;;42.15;22.77;;;20.00;99.90;;;;;;5039212;28;20071;-78
2022/05/14 07:29:13;;;;;;;43.72;22.77;;;20.30;99.90;;;;;;5055374;28;20079;-78
2022/05/14 07:31:40;;;;;;;29.70;19.98;;;20.60;99.90;;;;;;5055579;28;20037;-78
2022/05/14 07:34:08;;;;;;;31.95;20.63;;;20.70;99.90;;;;;;5061715;28;20053;-79
2022/05/14 07:36:43;;;;;;;37.03;20.70;;;20.90;99.90;;;;;;5061068;28;20051;-77
2022/05/14 07:39:10;;;;;;;26.02;18.13;;;20.80;99.90;;;;;;5062614;28;20480;-77
2022/05/14 07:41:40;;;;;;;17.75;13.48;;;20.70;99.90;;;;;;5061838;28;20047;-78
2022/05/14 07:44:09;;;;;;;21.35;14.52;;;20.60;99.90;;;;;;5059871;28;20041;-79
2022/05/14 07:46:38;;;;;;;15.60;13.88;;;20.70;99.90;;;;;;5073689;28;20045;-78
2022/05/14 07:49:10;;;;;;;23.13;15.27;;;20.60;99.90;;;;;;5075231;28;20404;-78
2022/05/14 07:51:39;;;;;;;24.95;17.33;;;20.70;99.90;;;;;;5076133;28;20047;-79
2022/05/14 07:54:07;;;;;;;22.65;16.15;;;20.80;99.90;;;;;;5074490;28;20071;-78
2022/05/14 07:56:35;;;;;;;25.58;17.10;;;20.90;99.90;;;;;;5074602;28;20079;-77
2022/05/14 07:59:03;;;;;;;18.88;15.52;;;21.10;99.90;;;;;;5061803;28;20041;-75
2022/05/14 08:01:30;;;;;;;22.25;15.48;;;21.20;99.90;;;;;;5058858;28;20041;-77
2022/05/14 08:03:58;;;;;;;28.30;19.80;;;21.20;99.90;;;;;;5060650;28;20053;-76
2022/05/14 08:06:26;;;;;;;34.92;16.15;;;21.30;99.90;;;;;;5059097;28;20067;-77
2022/05/14 08:08:56;;;;;;;30.67;18.05;;;21.30;99.90;;;;;;5057014;28;20396;-78
2022/05/14 08:11:23;;;;;;;35.13;22.10;;;21.20;99.90;;;;;;5039593;28;20415;-76
2022/05/14 08:13:53;;;;;;;38.78;28.92;;;21.30;99.90;;;;;;5057167;28;20041;-77
2022/05/14 08:16:22;;;;;;;54.10;37.88;;;21.20;99.90;;;;;;5057830;28;20045;-77
2022/05/14 08:18:49;;;;;;;55.42;38.05;;;21.20;99.90;;;;;;5057337;28;20047;-77
2022/05/14 08:26:55;;;;;;;44.40;30.90;;;21.10;99.90;;;;;;5054995;28;20045;-77
2022/05/14 08:29:24;;;;;;;40.88;27.25;;;21.20;99.90;;;;;;5060080;28;20029;-76
2022/05/14 08:31:51;;;;;;;33.88;26.08;;;21.40;99.90;;;;;;5041271;28;20056;-77
2022/05/14 08:34:19;;;;;;;33.63;26.52;;;21.60;99.90;;;;;;5058713;28;20496;-76
2022/05/14 08:36:47;;;;;;;33.47;26.52;;;21.60;99.90;;;;;;5040528;28;20049;-77
2022/05/14 08:39:16;;;;;;;33.53;28.10;;;21.50;99.90;;;;;;5059336;28;20037;-78
2022/05/14 08:41:48;;;;;;;37.95;31.02;;;21.40;99.90;;;;;;5058642;28;20049;-78
2022/05/14 08:44:18;;;;;;;31.52;28.02;;;21.60;99.90;;;;;;5072415;28;20484;-77
2022/05/14 08:46:46;;;;;;;26.95;22.70;;;22.20;99.90;;;;;;5060103;28;20114;-78
2022/05/14 08:49:21;;;;;;;24.58;22.00;;;22.90;99.90;;;;;;5065250;28;20039;-80
2022/05/14 08:51:52;;;;;;;31.15;23.98;;;23.30;99.90;;;;;;5060988;28;20045;-78
2022/05/14 08:54:21;;;;;;;28.40;25.35;;;23.30;99.90;;;;;;5059111;28;20049;-79
2022/05/14 08:56:57;;;;;;;36.38;27.90;;;23.50;99.90;;;;;;5060239;28;20055;-76
2022/05/14 08:59:41;;;;;;;31.70;26.88;;;23.80;99.90;;;;;;5058876;28;20044;-78
2022/05/14 09:02:17;;;;;;;33.03;27.23;;;23.80;99.90;;;;;;5056241;28;20368;-78
2022/05/14 09:04:45;;;;;;;41.85;30.50;;;24.10;99.90;;;;;;5058827;28;20040;-78
2022/05/14 09:07:12;;;;;;;35.78;30.83;;;24.20;99.90;;;;;;5057883;28;20451;-78
2022/05/14 09:09:51;;;;;;;35.63;30.67;;;23.80;99.90;;;;;;5055738;28;20037;-77
2022/05/14 09:12:26;;;;;;;39.67;28.75;;;23.70;99.90;;;;;;5037123;28;20041;-77
2022/05/14 09:14:56;;;;;;;34.75;28.58;;;23.70;99.90;;;;;;5062309;28;20050;-77
2022/05/14 09:17:28;;;;;;;35.95;30.45;;;23.80;99.90;;;;;;5056242;28;20056;-77
2022/05/14 09:19:58;;;;;;;43.55;30.08;;;23.60;99.90;;;;;;5055801;28;20510;-77
2022/05/14 09:22:32;;;;;;;40.80;33.85;;;23.50;99.90;;;;;;5055743;28;20098;-74
2022/05/14 09:25:21;;;;;;;47.58;35.35;;;23.30;99.90;;;;;;5055743;28;20047;-76
2022/05/14 09:27:55;;;;;;;52.25;45.88;;;23.40;99.90;;;;;;5037787;28;20049;-77
2022/05/14 09:30:30;;;;;;;50.75;44.67;;;23.40;99.90;;;;;;5055086;28;20039;-76
2022/05/14 09:32:58;;;;;;;57.25;50.17;;;23.50;99.90;;;;;;5054487;28;20041;-76
2022/05/14 09:35:28;;;;;;;41.95;36.70;;;23.60;99.90;;;;;;5055109;28;20045;-77
2022/05/14 09:38:07;;;;;;;29.30;24.67;;;23.80;99.90;;;;;;5055039;28;20570;-76
2022/05/14 09:40:37;;;;;;;33.58;19.45;;;24.10;99.90;;;;;;5054588;28;20409;-76
2022/05/14 09:43:22;;;;;;;25.30;19.35;;;24.20;99.90;;;;;;5054522;28;20071;-76
2022/05/14 09:46:00;;;;;;;31.90;23.20;;;24.10;99.90;;;;;;5056143;28;20066;-77
2022/05/14 09:48:34;;;;;;;32.92;29.02;;;24.30;99.90;;;;;;5055350;28;20056;-76
2022/05/14 09:51:03;;;;;;;32.10;27.58;;;24.10;99.90;;;;;;5055569;28;20068;-77
2022/05/14 09:53:36;;;;;;;32.75;26.30;;;24.20;99.90;;;;;;5054755;28;20067;-77
2022/05/14 09:56:51;;;;;;;31.20;23.63;;;24.40;99.90;;;;;;5052970;28;20109;-76
2022/05/14 09:59:37;;;;;;;33.80;29.73;;;24.40;99.90;;;;;;5035813;28;20148;-76
2022/05/14 10:02:14;;;;;;;40.33;31.88;;;24.00;99.90;;;;;;5055524;28;20056;-76
2022/05/14 10:04:58;;;;;;;31.65;25.63;;;24.00;99.90;;;;;;5055069;28;20037;-77
2022/05/14 10:07:36;;;;;;;24.88;21.48;;;24.10;99.90;;;;;;5056402;28;20049;-77
2022/05/14 10:10:19;;;;;;;24.98;20.02;;;24.30;99.90;;;;;;5061749;28;20477;-76
2022/05/14 10:12:51;;;;;;;29.23;21.90;;;24.60;99.90;;;;;;5044125;28;20064;-75
2022/05/14 10:15:33;;;;;;;25.23;20.80;;;24.80;99.90;;;;;;5058453;28;20048;-77
2022/05/14 10:18:05;;;;;;;24.48;21.88;;;24.90;99.90;;;;;;5056034;28;20048;-76
2022/05/14 10:20:42;;;;;;;21.38;18.98;;;24.90;99.90;;;;;;5036904;28;20041;-76
2022/05/14 10:29:33;;;;;;;19.15;13.75;;;25.00;99.90;;;;;;5031279;28;20041;-77
2022/05/14 10:32:05;;;;;;;20.88;18.42;;;25.00;99.90;;;;;;5038684;28;20052;-77
2022/05/14 10:34:43;;;;;;;22.30;17.35;;;24.90;99.90;;;;;;5057642;28;20041;-77
2022/05/14 10:37:23;;;;;;;19.58;15.63;;;25.00;99.90;;;;;;5056799;28;20562;-75
2022/05/14 10:39:58;;;;;;;21.35;13.20;;;25.30;99.90;;;;;;5056921;28;20075;-77
2022/05/14 10:42:34;;;;;;;21.65;14.98;;;25.50;99.90;;;;;;5055506;28;20049;-76
2022/05/14 10:45:09;;;;;;;24.25;16.00;;;25.60;99.90;;;;;;5055246;28;20049;-76
2022/05/14 10:47:44;;;;;;;19.17;15.70;;;25.80;99.90;;;;;;5053908;28;20052;-77
2022/05/14 10:50:17;;;;;;;21.15;13.68;;;26.00;99.90;;;;;;5053971;28;20769;-76
2022/05/14 10:52:47;;;;;;;19.63;13.65;;;26.10;99.90;;;;;;5053910;28;20089;-78
2022/05/14 10:55:18;;;;;;;17.80;12.48;;;26.10;99.90;;;;;;5056512;28;20136;-76
2022/05/14 10:57:49;;;;;;;16.17;12.73;;;26.10;99.90;;;;;;5057472;28;20063;-77
2022/05/14 11:00:38;;;;;;;20.52;12.45;;;26.30;99.90;;;;;;5056034;28;20041;-78
2022/05/14 11:03:14;;;;;;;23.02;13.55;;;26.30;99.90;;;;;;5054971;28;20519;-77
2022/05/14 11:06:10;;;;;;;19.88;12.70;;;26.20;99.90;;;;;;5054375;28;20041;-78
2022/05/14 11:08:41;;;;;;;17.45;10.93;;;26.20;99.90;;;;;;5039041;28;20045;-76
2022/05/14 11:11:15;;;;;;;11.48;8.52;;;26.30;99.90;;;;;;5039456;28;20049;-77
2022/05/14 11:13:55;;;;;;;12.95;8.55;;;26.00;99.90;;;;;;5057873;28;20048;-77
2022/05/14 11:16:22;;;;;;;15.35;9.95;;;26.00;99.90;;;;;;5058363;28;20053;-77
2022/05/14 11:18:53;;;;;;;13.73;9.55;;;25.90;99.90;;;;;;5058429;28;20049;-77
2022/05/14 11:21:35;;;;;;;10.15;8.25;;;26.00;99.90;;;;;;5071833;28;20045;-77
2022/05/14 11:24:03;;;;;;;18.35;8.85;;;26.00;99.90;;;;;;5051474;28;20059;-76
2022/05/14 11:26:31;;;;;;;12.75;8.80;;;26.20;99.90;;;;;;5058974;28;20056;-76
2022/05/14 11:29:01;;;;;;;13.98;8.85;;;26.00;99.90;;;;;;5058251;28;20060;-76
2022/05/14 11:31:32;;;;;;;10.73;8.52;;;26.10;99.90;;;;;;5057844;28;20049;-76
2022/05/14 11:34:15;;;;;;;15.57;9.27;;;26.40;99.90;;;;;;5039125;28;20492;-76
2022/05/14 11:36:48;;;;;;;12.88;9.15;;;26.60;99.90;;;;;;5057816;28;20053;-76
2022/05/14 11:39:31;;;;;;;17.90;10.85;;;27.00;99.90;;;;;;5058032;28;20045;-76
2022/05/14 11:42:25;;;;;;;12.32;9.40;;;26.90;99.90;;;;;;5057932;28;20132;-76
2022/05/14 11:44:57;;;;;;;19.15;7.47;;;26.40;99.90;;;;;;5058162;28;20492;-76
2022/05/14 11:47:52;;;;;;;8.55;5.88;;;26.40;99.90;;;;;;5056615;28;20095;-75
2022/05/14 11:50:27;;;;;;;15.75;9.75;;;26.70;99.90;;;;;;5057474;28;20377;-76
2022/05/14 11:53:18;;;;;;;18.15;11.40;;;26.70;99.90;;;;;;5057269;28;20045;-76
2022/05/14 11:55:51;;;;;;;8.38;6.25;;;26.60;99.90;;;;;;5057657;28;20052;-75
2022/05/14 11:58:24;;;;;;;18.30;11.98;;;26.50;99.90;;;;;;5039930;28;20048;-75
2022/05/14 12:00:54;;;;;;;12.63;7.82;;;26.60;99.90;;;;;;5038957;28;20041;-75
2022/05/14 12:03:25;;;;;;;13.55;8.20;;;26.30;99.90;;;;;;5038770;28;20106;-77
2022/05/14 12:05:59;;;;;;;12.00;7.47;;;26.00;99.90;;;;;;5039029;28;20069;-76
2022/05/14 12:08:55;;;;;;;9.13;5.63;;;25.80;99.90;;;;;;5056473;28;20412;-75
2022/05/14 12:11:29;;;;;;;14.48;4.55;;;25.90;99.90;;;;;;5056913;28;20044;-75
2022/05/14 12:14:04;;;;;;;9.00;5.57;;;25.90;99.90;;;;;;5056836;28;20599;-76
2022/05/14 12:16:34;;;;;;;9.45;4.22;;;26.00;99.90;;;;;;5059953;28;20047;-76
2022/05/14 12:19:03;;;;;;;8.15;4.22;;;26.20;99.90;;;;;;5055813;28;20581;-75
2022/05/14 12:21:34;;;;;;;7.35;3.80;;;26.40;99.90;;;;;;5056211;28;20403;-76
2022/05/14 12:24:03;;;;;;;6.28;3.78;;;26.50;99.90;;;;;;5056051;28;20056;-75
2022/05/14 12:26:32;;;;;;;11.82;4.00;;;26.20;99.90;;;;;;5055973;28;20052;-76
2022/05/14 12:29:03;;;;;;;11.55;5.20;;;26.10;99.90;;;;;;5056198;28;20489;-75
2022/05/14 12:34:19;;;;;;;15.75;11.52;;;26.30;99.90;;;;;;5055672;28;20041;-76
2022/05/14 12:36:51;;;;;;;4.85;3.70;;;26.40;99.90;;;;;;5055695;28;20045;-76
2022/05/14 12:39:22;;;;;;;7.13;3.97;;;26.50;99.90;;;;;;5055736;28;20041;-76
2022/05/14 12:41:54;;;;;;;9.68;4.68;;;26.50;99.90;;;;;;5055688;28;20051;-76
2022/05/14 12:44:24;;;;;;;11.75;5.55;;;26.70;99.90;;;;;;5055497;28;20120;-75
2022/05/14 12:46:54;;;;;;;11.57;6.22;;;26.60;99.90;;;;;;5057161;28;20045;-76
2022/05/14 12:49:25;;;;;;;8.15;5.00;;;26.50;99.90;;;;;;5054598;28;20103;-75
2022/05/14 12:51:58;;;;;;;10.02;5.20;;;26.40;99.90;;;;;;5055302;28;20052;-76
2022/05/14 12:54:27;;;;;;;6.90;3.40;;;26.50;99.90;;;;;;5055741;28;20152;-76
2022/05/14 12:56:57;;;;;;;12.52;7.10;;;26.50;99.90;;;;;;5055598;28;20040;-76
2022/05/14 12:59:26;;;;;;;11.70;4.53;;;26.60;99.90;;;;;;5056257;28;20049;-76
2022/05/14 13:01:57;;;;;;;6.45;3.78;;;26.70;99.90;;;;;;5056681;28;20385;-76
2022/05/14 13:04:32;;;;;;;7.80;4.03;;;26.90;99.90;;;;;;5055985;28;20492;-76
2022/05/14 13:07:03;;;;;;;14.00;6.93;;;26.90;99.90;;;;;;5055849;28;20071;-75
2022/05/14 13:09:31;;;;;;;8.10;6.28;;;26.90;99.90;;;;;;5054186;28;20048;-75
2022/05/14 13:11:59;;;;;;;10.85;3.92;;;26.90;99.90;;;;;;5055564;28;20475;-76
2022/05/14 13:14:30;;;;;;;7.38;3.00;;;26.90;99.90;;;;;;5055531;28;20037;-76
2022/05/14 13:17:00;;;;;;;6.55;4.60;;;26.80;99.90;;;;;;5055623;28;20071;-77